Time;durP1;ratioP1;P1;durP2;ratioP2;P2;SDS_P1;SDS_P2;PMS_P1;PMS_P2;Temp;Humidity;BMP_temperature;BMP_pressure;BME280_temperature;BME280_humidity;BME280_pressure;Samples;Min_cycle;Max_cycle;Signal;HPM_P1;HPM_P2
2023/10/16 00:01:26;;;;;;;0.30;0.30;;;6.50;99.90;;;;;;5053981;28;20524;-75
2023/10/16 00:03:52;;;;;;;0.68;0.60;;;6.50;99.90;;;;;;5045353;28;20076;-75
2023/10/16 00:06:18;;;;;;;0.50;0.50;;;6.50;99.90;;;;;;5060158;28;20524;-74
2023/10/16 00:08:47;;;;;;;0.50;0.50;;;6.60;99.90;;;;;;5062130;28;20433;-76
2023/10/16 00:11:17;;;;;;;0.40;0.40;;;6.60;99.90;;;;;;5058007;28;20036;-74
2023/10/16 00:13:50;;;;;;;0.40;0.40;;;6.60;99.90;;;;;;5043993;28;20056;-75
2023/10/16 00:16:18;;;;;;;0.70;0.70;;;6.60;99.90;;;;;;5067030;28;20178;-75
2023/10/16 00:18:47;;;;;;;0.40;0.40;;;6.60;99.90;;;;;;5038482;28;20093;-76
2023/10/16 00:21:14;;;;;;;0.45;0.45;;;6.60;99.90;;;;;;5072211;28;20525;-74
2023/10/16 00:23:41;;;;;;;0.40;0.40;;;6.60;99.90;;;;;;5077642;28;20436;-75
2023/10/16 00:26:13;;;;;;;0.50;0.50;;;6.60;99.90;;;;;;5060570;28;20040;-74
2023/10/16 00:28:44;;;;;;;0.50;0.50;;;6.60;99.90;;;;;;5065961;28;20044;-75
2023/10/16 00:31:12;;;;;;;0.50;0.50;;;6.60;99.90;;;;;;5060340;28;20497;-75
2023/10/16 00:33:40;;;;;;;0.52;0.52;;;6.60;99.90;;;;;;5064849;28;20047;-75
2023/10/16 00:36:06;;;;;;;0.40;0.40;;;6.60;99.90;;;;;;5060209;28;20045;-76
2023/10/16 00:38:37;;;;;;;0.85;0.85;;;6.60;99.90;;;;;;5064006;28;20385;-74
2023/10/16 00:43:40;;;;;;;0.50;0.50;;;6.60;99.90;;;;;;5063562;28;20040;-75
2023/10/16 00:46:11;;;;;;;0.50;0.50;;;6.60;99.90;;;;;;5065371;28;20058;-74
2023/10/16 00:48:42;;;;;;;0.40;0.40;;;6.60;99.90;;;;;;5067633;28;20398;-75
2023/10/16 00:51:09;;;;;;;0.55;0.55;;;6.60;99.90;;;;;;5048818;28;20122;-74
2023/10/16 00:53:37;;;;;;;0.40;0.40;;;6.70;99.90;;;;;;5048598;28;20043;-76
2023/10/16 00:56:14;;;;;;;0.50;0.50;;;6.70;99.90;;;;;;5064500;28;20047;-74
2023/10/16 00:58:45;;;;;;;0.45;0.45;;;6.70;99.90;;;;;;5061157;28;20070;-75
2023/10/16 01:01:12;;;;;;;0.40;0.40;;;6.70;99.90;;;;;;5056329;28;20044;-74
2023/10/16 01:03:40;;;;;;;0.50;0.50;;;6.70;99.90;;;;;;5057951;28;20048;-75
2023/10/16 01:06:26;;;;;;;0.40;0.40;;;6.80;99.90;;;;;;5069028;28;20371;-75
2023/10/16 01:08:52;;;;;;;0.40;0.40;;;6.80;99.90;;;;;;5066591;28;20097;-75
2023/10/16 01:11:19;;;;;;;0.40;0.40;;;6.80;99.90;;;;;;5050890;28;20040;-75
2023/10/16 01:13:50;;;;;;;0.40;0.40;;;6.80;99.90;;;;;;5070965;28;20539;-75
2023/10/16 01:16:16;;;;;;;0.40;0.40;;;6.80;99.90;;;;;;5067415;28;20036;-75
2023/10/16 01:18:44;;;;;;;0.60;0.60;;;6.80;99.90;;;;;;5045086;28;20048;-75
2023/10/16 01:21:13;;;;;;;0.50;0.50;;;6.80;99.90;;;;;;5064309;28;20444;-75
2023/10/16 01:23:40;;;;;;;0.40;0.40;;;6.90;99.90;;;;;;5049404;28;20558;-75
2023/10/16 01:26:08;;;;;;;0.38;0.38;;;6.80;99.90;;;;;;5049908;28;20072;-75
2023/10/16 01:28:33;;;;;;;0.52;0.52;;;6.90;99.90;;;;;;5065492;28;20440;-75
2023/10/16 01:31:00;;;;;;;0.40;0.40;;;6.90;99.90;;;;;;5060876;28;20029;-75
2023/10/16 01:33:27;;;;;;;0.40;0.40;;;6.90;99.90;;;;;;5057483;28;20046;-76
2023/10/16 01:35:52;;;;;;;0.50;0.50;;;6.90;99.90;;;;;;5068793;28;20040;-74
2023/10/16 01:38:19;;;;;;;0.50;0.50;;;6.90;99.90;;;;;;5051669;28;20040;-75
2023/10/16 01:40:48;;;;;;;0.40;0.40;;;6.90;99.90;;;;;;5042510;28;20516;-75
2023/10/16 01:43:16;;;;;;;0.50;0.50;;;6.90;99.90;;;;;;5038838;28;20118;-75
2023/10/16 01:45:55;;;;;;;0.40;0.40;;;6.90;99.90;;;;;;5044473;28;20037;-75
2023/10/16 01:48:21;;;;;;;0.70;0.70;;;6.90;99.90;;;;;;5058909;28;20048;-74
2023/10/16 01:50:48;;;;;;;0.40;0.40;;;6.90;99.90;;;;;;5060106;28;20033;-75
2023/10/16 01:53:15;;;;;;;0.50;0.50;;;6.90;99.90;;;;;;5040351;28;20040;-75
2023/10/16 01:55:51;;;;;;;0.60;0.60;;;6.90;99.90;;;;;;5058386;28;20059;-75
2023/10/16 01:58:17;;;;;;;0.77;0.77;;;6.90;99.90;;;;;;5052910;28;20044;-76
2023/10/16 02:00:45;;;;;;;0.38;0.38;;;6.90;99.90;;;;;;5044673;28;20047;-75
2023/10/16 02:03:11;;;;;;;1.98;0.52;;;6.90;99.90;;;;;;5067988;28;20055;-74
2023/10/16 02:05:41;;;;;;;0.40;0.40;;;6.90;99.90;;;;;;5069884;28;20047;-75
2023/10/16 02:08:07;;;;;;;2.13;0.82;;;6.90;99.90;;;;;;5046030;28;20545;-75
2023/10/16 02:10:32;;;;;;;0.50;0.50;;;6.90;99.90;;;;;;5046650;28;20096;-74
2023/10/16 02:12:58;;;;;;;0.52;0.52;;;7.00;99.90;;;;;;5064258;28;20047;-75
2023/10/16 02:15:24;;;;;;;0.40;0.40;;;7.00;99.90;;;;;;5055531;28;20123;-75
2023/10/16 02:17:50;;;;;;;0.40;0.40;;;7.00;99.90;;;;;;5055977;28;20042;-75
2023/10/16 02:20:18;;;;;;;0.40;0.40;;;7.00;99.90;;;;;;5047313;28;20468;-75
2023/10/16 02:22:45;;;;;;;0.50;0.50;;;7.00;99.90;;;;;;5055342;28;20094;-75
2023/10/16 02:25:12;;;;;;;0.47;0.47;;;7.10;99.90;;;;;;5060879;28;20044;-75
2023/10/16 02:27:41;;;;;;;0.60;0.60;;;7.10;99.90;;;;;;5054329;28;20040;-75
2023/10/16 02:32:58;;;;;;;0.55;0.55;;;7.10;99.90;;;;;;5063212;28;20489;-75
2023/10/16 02:35:24;;;;;;;0.40;0.40;;;7.10;99.90;;;;;;5056594;28;20040;-75
2023/10/16 02:37:53;;;;;;;0.40;0.40;;;7.10;99.90;;;;;;5062444;28;20485;-75
2023/10/16 02:40:20;;;;;;;0.40;0.40;;;7.00;99.90;;;;;;5040856;28;20135;-75
2023/10/16 02:42:53;;;;;;;0.40;0.40;;;7.10;99.90;;;;;;5056414;28;20771;-74
2023/10/16 02:45:25;;;;;;;0.40;0.40;;;7.00;99.90;;;;;;5056401;28;20503;-75
2023/10/16 02:47:51;;;;;;;0.40;0.40;;;7.00;99.90;;;;;;5060987;28;20118;-74
2023/10/16 02:50:18;;;;;;;0.50;0.50;;;7.00;99.90;;;;;;5062515;28;20366;-75
2023/10/16 02:52:48;;;;;;;0.40;0.40;;;6.90;99.90;;;;;;5069193;28;20035;-75
2023/10/16 02:55:14;;;;;;;0.50;0.50;;;6.90;99.90;;;;;;5056169;28;20040;-75
2023/10/16 02:57:40;;;;;;;3.22;0.77;;;6.90;99.90;;;;;;5054322;28;20039;-74
2023/10/16 03:00:23;;;;;;;0.55;0.55;;;6.90;99.90;;;;;;5061520;28;20044;-75
2023/10/16 03:02:49;;;;;;;0.40;0.40;;;6.90;99.90;;;;;;5067429;28;20095;-75
2023/10/16 03:05:25;;;;;;;0.40;0.40;;;6.80;99.90;;;;;;5060889;28;20040;-75
2023/10/16 03:07:52;;;;;;;0.50;0.50;;;6.80;99.90;;;;;;5042421;28;20367;-75
2023/10/16 03:10:20;;;;;;;0.50;0.50;;;6.90;99.90;;;;;;5059114;28;20033;-75
2023/10/16 03:12:52;;;;;;;0.50;0.50;;;6.90;99.90;;;;;;5059293;28;20036;-75
2023/10/16 03:15:27;;;;;;;0.50;0.50;;;6.90;99.90;;;;;;5048914;28;20036;-75
2023/10/16 03:17:54;;;;;;;0.50;0.50;;;6.90;99.90;;;;;;5065640;28;20452;-75
2023/10/16 03:20:28;;;;;;;0.40;0.40;;;7.00;99.90;;;;;;5041952;28;20040;-75
2023/10/16 03:22:54;;;;;;;0.40;0.40;;;7.00;99.90;;;;;;5055407;28;20129;-75
2023/10/16 03:25:30;;;;;;;0.50;0.50;;;7.00;99.90;;;;;;5040047;28;20048;-75
2023/10/16 03:27:57;;;;;;;0.40;0.40;;;7.00;99.90;;;;;;5060368;28;20040;-75
2023/10/16 03:30:27;;;;;;;0.65;0.65;;;7.00;99.90;;;;;;5062453;28;20041;-74
2023/10/16 03:32:53;;;;;;;0.50;0.50;;;7.00;99.90;;;;;;5060149;28;20440;-75
2023/10/16 03:35:26;;;;;;;1.00;1.00;;;7.00;99.90;;;;;;5040816;28;20083;-75
2023/10/16 03:37:54;;;;;;;0.50;0.50;;;7.00;99.90;;;;;;5064535;28;20036;-75
2023/10/16 03:40:20;;;;;;;0.60;0.60;;;6.90;99.90;;;;;;5056920;28;20045;-75
2023/10/16 03:42:46;;;;;;;0.73;0.73;;;6.90;99.90;;;;;;5041885;28;20501;-75
2023/10/16 03:45:16;;;;;;;0.57;0.57;;;7.00;99.90;;;;;;5056229;28;20098;-75
2023/10/16 03:47:43;;;;;;;0.55;0.55;;;6.90;99.90;;;;;;5039254;28;20072;-76
2023/10/16 03:50:09;;;;;;;0.43;0.43;;;6.90;99.90;;;;;;5057235;28;20589;-75
2023/10/16 03:52:35;;;;;;;0.32;0.32;;;7.00;99.90;;;;;;5036329;28;20548;-75
2023/10/16 03:55:22;;;;;;;0.43;0.43;;;7.00;99.90;;;;;;5062453;28;20036;-75
2023/10/16 03:57:50;;;;;;;1.25;0.70;;;7.00;99.90;;;;;;5038814;28;20097;-76
2023/10/16 04:00:25;;;;;;;0.47;0.47;;;7.00;99.90;;;;;;5063928;28;20360;-74
2023/10/16 04:02:51;;;;;;;0.40;0.40;;;7.00;99.90;;;;;;5058438;28;20055;-74
2023/10/16 04:08:02;;;;;;;0.73;0.73;;;7.10;99.90;;;;;;5059150;28;20551;-75
2023/10/16 04:10:30;;;;;;;0.57;0.52;;;7.10;99.90;;;;;;5043920;28;20048;-75
2023/10/16 04:12:57;;;;;;;0.50;0.50;;;7.10;99.90;;;;;;5063935;28;20041;-74
2023/10/16 04:15:50;;;;;;;0.50;0.50;;;7.10;99.90;;;;;;5065486;28;20523;-76
2023/10/16 04:31:45;;;;;;;0.40;0.40;;;7.20;99.90;;;;;;5060437;28;20052;-75
2023/10/16 04:48:06;;;;;;;0.50;0.50;;;7.20;99.90;;;;;;5066253;28;20044;-75
2023/10/16 04:50:37;;;;;;;0.45;0.45;;;7.30;99.90;;;;;;5058935;28;20477;-75
2023/10/16 05:06:38;;;;;;;0.40;0.40;;;7.30;99.90;;;;;;5069085;28;20036;-74
2023/10/16 06:14:34;;;;;;;0.50;0.50;;;7.20;99.90;;;;;;5067196;28;20070;-75
2023/10/16 06:17:01;;;;;;;0.40;0.40;;;7.20;99.90;;;;;;5066196;28;20761;-74
2023/10/16 06:19:26;;;;;;;0.50;0.50;;;7.20;99.90;;;;;;5063178;28;20071;-76
2023/10/16 06:22:06;;;;;;;0.50;0.50;;;7.20;99.90;;;;;;5049354;28;20099;-74
2023/10/16 06:24:44;;;;;;;0.40;0.40;;;7.20;99.90;;;;;;5065561;28;20064;-74
2023/10/16 06:27:11;;;;;;;0.40;0.40;;;7.20;99.90;;;;;;5054733;28;20054;-73
2023/10/16 06:29:49;;;;;;;0.40;0.40;;;7.20;99.90;;;;;;5063162;28;20078;-74
2023/10/16 06:32:19;;;;;;;0.47;0.47;;;7.20;99.90;;;;;;5057727;28;20048;-74
2023/10/16 06:34:52;;;;;;;0.40;0.40;;;7.30;99.90;;;;;;5069835;28;20036;-74
2023/10/16 06:37:18;;;;;;;0.50;0.50;;;7.30;99.90;;;;;;5051293;28;20087;-74
2023/10/16 06:39:49;;;;;;;0.50;0.50;;;7.30;99.90;;;;;;5060427;28;20041;-74
2023/10/16 06:42:18;;;;;;;2.42;1.02;;;7.30;99.90;;;;;;5038115;28;20483;-74
2023/10/16 06:44:54;;;;;;;0.77;0.57;;;7.40;99.90;;;;;;5061413;28;20893;-74
2023/10/16 06:47:23;;;;;;;0.60;0.60;;;7.30;99.90;;;;;;5068174;28;20040;-75
2023/10/16 06:49:50;;;;;;;0.57;0.57;;;7.40;99.90;;;;;;5054388;28;20121;-74
2023/10/16 06:52:19;;;;;;;0.50;0.50;;;7.40;99.90;;;;;;5044357;28;20490;-74
2023/10/16 06:54:45;;;;;;;0.40;0.40;;;7.40;99.90;;;;;;5062071;28;20126;-74
2023/10/16 06:57:11;;;;;;;0.38;0.38;;;7.40;99.90;;;;;;5064609;28;20505;-74
2023/10/16 06:59:45;;;;;;;0.47;0.47;;;7.50;99.90;;;;;;5067639;28;20032;-74
2023/10/16 07:02:19;;;;;;;2.42;0.80;;;7.50;99.90;;;;;;5064001;28;20057;-74
2023/10/16 07:04:46;;;;;;;0.75;0.75;;;7.60;99.90;;;;;;5046576;28;20037;-75
2023/10/16 07:07:16;;;;;;;1.15;1.05;;;7.60;99.90;;;;;;5061477;28;20037;-74
2023/10/16 07:09:48;;;;;;;0.80;0.80;;;7.70;99.90;;;;;;5044587;28;20029;-76
2023/10/16 07:12:18;;;;;;;0.40;0.40;;;7.80;99.90;;;;;;5062969;28;20072;-75
2023/10/16 07:14:55;;;;;;;0.43;0.43;;;7.80;99.90;;;;;;5059576;28;20111;-74
2023/10/16 07:17:24;;;;;;;0.50;0.50;;;7.80;99.90;;;;;;5057362;28;20049;-74
2023/10/16 07:20:00;;;;;;;0.50;0.50;;;7.90;99.90;;;;;;5039497;28;20047;-76
2023/10/16 07:22:32;;;;;;;0.50;0.50;;;8.00;99.90;;;;;;5049293;28;20506;-76
2023/10/16 07:25:09;;;;;;;3.20;0.80;;;8.00;99.90;;;;;;5040611;28;20059;-74
2023/10/16 07:27:35;;;;;;;0.63;0.63;;;8.10;99.90;;;;;;5059121;28;20040;-75
2023/10/16 07:30:01;;;;;;;0.52;0.52;;;8.20;99.90;;;;;;5040891;28;20032;-76
2023/10/16 07:32:27;;;;;;;0.50;0.50;;;8.20;99.90;;;;;;5052354;28;20059;-75
2023/10/16 07:34:52;;;;;;;0.90;0.70;;;8.30;99.90;;;;;;5036879;28;20040;-74
2023/10/16 07:37:18;;;;;;;0.50;0.50;;;8.30;99.90;;;;;;5058760;28;20064;-75
2023/10/16 07:39:43;;;;;;;1.65;1.08;;;8.40;99.90;;;;;;5038816;28;20037;-75
2023/10/16 07:42:10;;;;;;;0.50;0.50;;;8.40;99.90;;;;;;5053059;28;20029;-75
2023/10/16 07:44:36;;;;;;;0.40;0.40;;;8.50;99.90;;;;;;5061993;28;20054;-76
2023/10/16 07:47:03;;;;;;;0.55;0.50;;;8.50;99.90;;;;;;5059412;28;20124;-75
2023/10/16 07:49:28;;;;;;;0.40;0.40;;;8.60;99.90;;;;;;5062288;28;20080;-74
2023/10/16 07:51:56;;;;;;;4.57;1.02;;;8.60;99.90;;;;;;5053282;28;20024;-75
2023/10/16 07:54:22;;;;;;;0.40;0.40;;;8.60;99.90;;;;;;5057136;28;20041;-76
2023/10/16 07:56:50;;;;;;;0.40;0.40;;;8.70;99.90;;;;;;5035725;28;20093;-74
2023/10/16 07:59:19;;;;;;;0.40;0.40;;;8.70;99.90;;;;;;5052926;28;20106;-74
2023/10/16 08:01:48;;;;;;;0.73;0.73;;;8.70;99.90;;;;;;5046071;28;20094;-73
2023/10/16 08:05:03;;;;;;;0.47;0.47;;;8.70;99.90;;;;;;5051073;28;20426;-76
2023/10/16 08:07:04;;;;;;;0.50;0.50;;;8.80;99.90;;;;;;5048467;28;20036;-76
2023/10/16 08:12:18;;;;;;;0.40;0.40;;;8.90;99.90;;;;;;5058532;28;20487;-75
2023/10/16 08:14:45;;;;;;;0.60;0.60;;;9.00;99.90;;;;;;5057173;28;20041;-75
2023/10/16 08:17:23;;;;;;;0.30;0.30;;;9.10;99.90;;;;;;5053374;28;20490;-75
2023/10/16 08:19:50;;;;;;;0.40;0.40;;;9.10;99.90;;;;;;5056902;28;20048;-75
2023/10/16 08:22:16;;;;;;;0.40;0.40;;;9.10;99.90;;;;;;5065226;28;20075;-75
2023/10/16 08:24:57;;;;;;;0.30;0.30;;;9.20;99.90;;;;;;5048499;28;20043;-75
2023/10/16 08:27:47;;;;;;;0.60;0.60;;;9.30;99.90;;;;;;5039569;28;20490;-73
2023/10/16 08:30:32;;;;;;;0.70;0.70;;;9.40;99.90;;;;;;5054682;28;20072;-76
2023/10/16 08:33:09;;;;;;;0.50;0.50;;;9.50;99.90;;;;;;5045102;28;20037;-76
2023/10/16 08:35:39;;;;;;;0.40;0.40;;;9.50;99.90;;;;;;5068404;28;20123;-76
2023/10/16 08:38:12;;;;;;;0.32;0.32;;;9.60;99.90;;;;;;5059817;28;20044;-75
2023/10/16 08:40:43;;;;;;;0.40;0.40;;;9.70;99.90;;;;;;5067577;28;20040;-75
2023/10/16 08:43:09;;;;;;;0.30;0.30;;;9.70;99.90;;;;;;5032843;28;20040;-75
2023/10/16 08:45:44;;;;;;;0.40;0.40;;;9.90;99.90;;;;;;5060087;28;20086;-75
2023/10/16 08:48:10;;;;;;;1.02;0.95;;;9.90;99.90;;;;;;5055584;28;20032;-76
2023/10/16 08:50:43;;;;;;;0.30;0.30;;;10.00;99.90;;;;;;5059646;28;20064;-75
2023/10/16 08:55:56;;;;;;;0.40;0.40;;;10.20;99.90;;;;;;5056025;28;20048;-75
2023/10/16 08:58:22;;;;;;;0.40;0.40;;;10.40;99.90;;;;;;5043576;28;20498;-76
2023/10/16 09:00:50;;;;;;;0.40;0.40;;;10.40;99.90;;;;;;5054021;28;20091;-76
2023/10/16 09:03:19;;;;;;;0.40;0.40;;;10.50;99.90;;;;;;5036422;28;20111;-75
2023/10/16 09:05:45;;;;;;;0.40;0.40;;;10.50;99.90;;;;;;5018871;28;20064;-76
2023/10/16 09:08:14;;;;;;;0.40;0.40;;;10.60;99.90;;;;;;5032259;28;20061;-75
2023/10/16 09:10:41;;;;;;;0.40;0.40;;;10.60;99.90;;;;;;5039291;28;20490;-76
2023/10/16 09:13:13;;;;;;;0.40;0.40;;;10.60;99.90;;;;;;5036565;28;20411;-76
2023/10/16 09:15:45;;;;;;;0.40;0.40;;;10.60;99.90;;;;;;5036681;28;20037;-75
2023/10/16 09:18:14;;;;;;;0.30;0.30;;;10.60;99.90;;;;;;5017593;28;20467;-74
2023/10/16 09:20:42;;;;;;;0.30;0.30;;;10.70;99.90;;;;;;5052861;28;20128;-76
2023/10/16 09:23:14;;;;;;;0.53;0.53;;;10.70;99.90;;;;;;5026300;28;20379;-76
2023/10/16 09:25:46;;;;;;;0.30;0.30;;;10.80;99.90;;;;;;5031526;28;20055;-76
2023/10/16 09:28:18;;;;;;;0.35;0.35;;;10.90;99.90;;;;;;5039689;28;20041;-76
2023/10/16 09:30:48;;;;;;;0.40;0.40;;;10.90;99.90;;;;;;5019921;28;20033;-75
2023/10/16 09:33:14;;;;;;;0.40;0.40;;;11.00;99.90;;;;;;5040357;28;20049;-75
2023/10/16 09:35:43;;;;;;;0.40;0.40;;;11.10;99.90;;;;;;5037612;28;20039;-74
2023/10/16 09:38:23;;;;;;;0.40;0.40;;;11.10;99.90;;;;;;5037499;28;20403;-75
2023/10/16 09:40:58;;;;;;;0.50;0.50;;;11.20;99.90;;;;;;5033706;28;20040;-75
2023/10/16 09:43:27;;;;;;;0.35;0.35;;;11.30;99.90;;;;;;5016660;28;20064;-75
2023/10/16 09:48:39;;;;;;;0.43;0.43;;;11.40;99.90;;;;;;5037754;28;20129;-76
2023/10/16 09:51:09;;;;;;;0.30;0.30;;;11.50;99.90;;;;;;5035991;28;20068;-76
2023/10/16 09:53:35;;;;;;;0.30;0.30;;;11.50;99.90;;;;;;5034021;28;20641;-75
2023/10/16 09:56:02;;;;;;;0.40;0.40;;;11.60;99.90;;;;;;5041001;28;20049;-74
2023/10/16 09:58:34;;;;;;;0.40;0.40;;;11.70;99.90;;;;;;5024327;28;20083;-76
2023/10/16 10:01:07;;;;;;;0.40;0.40;;;11.90;99.90;;;;;;5046214;28;20175;-76
2023/10/16 10:03:36;;;;;;;0.40;0.40;;;12.00;99.90;;;;;;5040733;28;20048;-76
2023/10/16 10:06:20;;;;;;;0.40;0.40;;;12.20;99.90;;;;;;5040589;28;20047;-76
2023/10/16 10:09:40;;;;;;;0.30;0.30;;;12.40;99.90;;;;;;5061585;28;20037;-76
2023/10/16 10:12:14;;;;;;;0.30;0.30;;;12.60;99.90;;;;;;5052040;28;20123;-76
2023/10/16 10:15:01;;;;;;;0.30;0.30;;;12.80;99.90;;;;;;5056858;28;20573;-76
2023/10/16 10:17:28;;;;;;;0.35;0.35;;;12.90;99.90;;;;;;5046991;28;20043;-76
2023/10/16 10:19:55;;;;;;;0.40;0.40;;;12.90;99.90;;;;;;5049236;28;20106;-76
2023/10/16 10:22:28;;;;;;;0.45;0.45;;;13.00;99.90;;;;;;5036147;28;20414;-75
2023/10/16 10:25:16;;;;;;;0.40;0.40;;;13.00;99.90;;;;;;5060237;28;20036;-76
2023/10/16 10:27:43;;;;;;;0.40;0.40;;;13.00;99.90;;;;;;5043658;28;20032;-75
2023/10/16 10:30:17;;;;;;;0.40;0.40;;;13.10;99.90;;;;;;5046208;28;20029;-76
2023/10/16 10:32:53;;;;;;;0.40;0.40;;;13.10;99.90;;;;;;5065724;28;20036;-76
2023/10/16 10:35:28;;;;;;;0.40;0.40;;;13.10;99.90;;;;;;5043425;28;20056;-76
2023/10/16 10:38:33;;;;;;;0.30;0.30;;;13.20;99.90;;;;;;5049668;28;20120;-76
2023/10/16 10:41:04;;;;;;;0.40;0.40;;;13.30;99.90;;;;;;4981066;28;20052;-75
2023/10/16 10:43:46;;;;;;;0.40;0.40;;;13.40;99.90;;;;;;4966494;28;20500;-75
2023/10/16 10:46:14;;;;;;;0.40;0.40;;;13.40;99.90;;;;;;5029967;28;20048;-76
2023/10/16 10:48:42;;;;;;;0.30;0.30;;;13.50;99.90;;;;;;5057096;28;20044;-76
2023/10/16 10:51:13;;;;;;;0.30;0.30;;;13.70;99.90;;;;;;5057327;28;20594;-76
2023/10/16 10:53:55;;;;;;;0.38;0.38;;;13.70;99.90;;;;;;5039329;28;20044;-75
2023/10/16 10:56:21;;;;;;;1.05;0.52;;;13.80;99.90;;;;;;5036374;28;20118;-76
2023/10/16 10:58:47;;;;;;;0.40;0.40;;;14.00;99.90;;;;;;5055038;28;20084;-77
2023/10/16 11:01:16;;;;;;;0.30;0.30;;;14.10;99.90;;;;;;5058164;28;20512;-76
2023/10/16 11:03:46;;;;;;;0.50;0.50;;;14.10;99.90;;;;;;5051493;28;20059;-77
2023/10/16 11:06:19;;;;;;;0.40;0.40;;;14.30;99.90;;;;;;5053492;28;20045;-77
2023/10/16 11:08:55;;;;;;;0.40;0.40;;;14.40;99.90;;;;;;5053945;28;20040;-77
2023/10/16 11:11:21;;;;;;;0.50;0.50;;;14.40;99.90;;;;;;5067479;28;20052;-76
2023/10/16 11:13:48;;;;;;;0.30;0.30;;;14.50;99.90;;;;;;5048176;28;20055;-77
2023/10/16 11:16:18;;;;;;;1.63;0.50;;;14.60;99.90;;;;;;5049494;28;20037;-77
2023/10/16 11:19:04;;;;;;;0.32;0.32;;;14.70;99.90;;;;;;5047333;28;20054;-77
2023/10/16 11:21:30;;;;;;;0.40;0.40;;;14.80;99.90;;;;;;5035875;28;20048;-77
2023/10/16 11:24:00;;;;;;;0.30;0.30;;;14.80;99.90;;;;;;5057810;28;20036;-76
2023/10/16 11:26:27;;;;;;;0.40;0.40;;;14.90;99.90;;;;;;5044968;28;20040;-76
2023/10/16 11:28:54;;;;;;;0.38;0.38;;;15.00;99.90;;;;;;5044122;28;20029;-77
2023/10/16 11:31:21;;;;;;;0.70;0.70;;;15.10;99.90;;;;;;5047023;28;20071;-77
2023/10/16 11:34:06;;;;;;;0.65;0.63;;;15.10;99.90;;;;;;5060920;28;20036;-74
2023/10/16 11:36:34;;;;;;;0.30;0.30;;;15.10;99.90;;;;;;5050910;28;20075;-75
2023/10/16 11:39:02;;;;;;;0.50;0.50;;;15.10;99.90;;;;;;5069344;28;20122;-76
2023/10/16 11:41:30;;;;;;;0.50;0.50;;;15.10;99.90;;;;;;5067436;28;20082;-76
2023/10/16 11:43:56;;;;;;;0.40;0.40;;;15.00;99.90;;;;;;5067513;28;20035;-77
2023/10/16 11:46:30;;;;;;;0.30;0.30;;;15.00;99.90;;;;;;5066939;28;20397;-75
2023/10/16 11:49:22;;;;;;;0.40;0.40;;;15.00;99.90;;;;;;5040874;28;20397;-76
2023/10/16 11:52:27;;;;;;;0.50;0.50;;;14.90;99.90;;;;;;5071077;28;20406;-77
2023/10/16 11:54:56;;;;;;;0.50;0.50;;;15.00;99.90;;;;;;5070284;28;20051;-76
2023/10/16 11:57:25;;;;;;;0.30;0.30;;;15.00;99.90;;;;;;5053184;28;20043;-74
2023/10/16 11:59:51;;;;;;;0.40;0.40;;;15.00;99.90;;;;;;5040145;28;20043;-77
2023/10/16 12:02:23;;;;;;;0.90;0.90;;;15.00;99.90;;;;;;5044991;28;20060;-75
2023/10/16 12:04:49;;;;;;;0.30;0.30;;;15.00;99.90;;;;;;5047978;28;20620;-76
2023/10/16 12:07:15;;;;;;;0.50;0.43;;;14.90;99.90;;;;;;5053798;28;20047;-77
2023/10/16 12:09:53;;;;;;;0.38;0.38;;;14.70;99.90;;;;;;5070811;28;20042;-77
2023/10/16 12:12:24;;;;;;;0.47;0.47;;;14.60;99.90;;;;;;5041500;28;20462;-77
2023/10/16 12:14:50;;;;;;;0.30;0.30;;;14.60;99.90;;;;;;5050131;28;20044;-77
2023/10/16 12:17:19;;;;;;;0.50;0.50;;;14.60;99.90;;;;;;5056842;28;20036;-76
2023/10/16 12:19:46;;;;;;;0.30;0.30;;;14.60;99.90;;;;;;5053955;28;20115;-77
2023/10/16 12:22:15;;;;;;;0.40;0.40;;;14.60;99.90;;;;;;5045634;28;20036;-77
2023/10/16 12:24:44;;;;;;;0.30;0.30;;;14.60;99.90;;;;;;5051283;28;20036;-77
2023/10/16 12:27:10;;;;;;;0.40;0.40;;;14.50;99.90;;;;;;5036733;28;20032;-77
2023/10/16 12:29:36;;;;;;;0.40;0.40;;;14.50;99.90;;;;;;5060596;28;20039;-77
2023/10/16 12:32:03;;;;;;;0.40;0.40;;;14.40;99.90;;;;;;5070509;28;20044;-77
2023/10/16 12:34:32;;;;;;;0.40;0.40;;;14.40;99.90;;;;;;5055900;28;20040;-77
2023/10/16 12:37:00;;;;;;;0.32;0.32;;;14.30;99.90;;;;;;5062621;28;20040;-77
2023/10/16 12:39:28;;;;;;;0.63;0.63;;;14.30;99.90;;;;;;5048058;28;20037;-78
2023/10/16 12:41:54;;;;;;;0.30;0.30;;;14.10;99.90;;;;;;5042650;28;20119;-77
2023/10/16 12:44:20;;;;;;;0.35;0.35;;;14.10;99.90;;;;;;5061015;28;20036;-76
2023/10/16 12:46:46;;;;;;;0.40;0.40;;;14.00;99.90;;;;;;5055313;28;20036;-77
2023/10/16 12:49:13;;;;;;;0.40;0.40;;;13.90;99.90;;;;;;5039636;28;20119;-77
2023/10/16 12:51:40;;;;;;;0.50;0.50;;;14.00;99.90;;;;;;5062497;28;20105;-77
2023/10/16 12:54:06;;;;;;;0.40;0.40;;;13.90;99.90;;;;;;5036994;28;20045;-75
2023/10/16 12:56:33;;;;;;;0.32;0.32;;;13.90;99.90;;;;;;5060211;28;20443;-77
2023/10/16 12:59:08;;;;;;;0.40;0.40;;;13.90;99.90;;;;;;5065993;28;20160;-79
2023/10/16 13:01:36;;;;;;;0.40;0.40;;;13.90;99.90;;;;;;5049837;28;20058;-77
2023/10/16 13:04:15;;;;;;;0.47;0.47;;;14.00;99.90;;;;;;5052371;28;20398;-76
2023/10/16 13:06:43;;;;;;;0.30;0.30;;;13.90;99.90;;;;;;5044956;28;20131;-77
2023/10/16 13:09:16;;;;;;;0.40;0.40;;;13.90;99.90;;;;;;5047600;28;20072;-78
2023/10/16 13:11:42;;;;;;;0.30;0.30;;;13.80;99.90;;;;;;5054194;28;20035;-79
2023/10/16 13:14:11;;;;;;;0.50;0.50;;;13.80;99.90;;;;;;5052238;28;20046;-77
2023/10/16 13:16:38;;;;;;;0.40;0.40;;;13.70;99.90;;;;;;5044376;28;20135;-78
2023/10/16 13:19:09;;;;;;;0.47;0.47;;;13.80;99.90;;;;;;5056793;28;20549;-80
2023/10/16 13:21:35;;;;;;;0.35;0.35;;;13.80;99.90;;;;;;5066884;28;20079;-81
2023/10/16 13:24:12;;;;;;;0.38;0.38;;;13.70;99.90;;;;;;5050310;28;20082;-78
2023/10/16 13:26:39;;;;;;;0.30;0.30;;;13.70;99.90;;;;;;5043748;28;20071;-78
2023/10/16 13:29:07;;;;;;;0.35;0.35;;;13.80;99.90;;;;;;5069759;28;20075;-79
2023/10/16 13:31:40;;;;;;;0.30;0.30;;;13.80;99.90;;;;;;5045459;28;20394;-78
2023/10/16 13:34:13;;;;;;;0.40;0.40;;;13.80;99.90;;;;;;5072466;28;20493;-79
2023/10/16 13:36:42;;;;;;;0.30;0.30;;;13.80;99.90;;;;;;5054585;28;20036;-77
2023/10/16 13:39:10;;;;;;;0.38;0.38;;;13.80;99.90;;;;;;5064181;28;20055;-76
2023/10/16 13:41:50;;;;;;;0.52;0.52;;;13.80;99.90;;;;;;5049049;28;20036;-77
2023/10/16 13:44:20;;;;;;;0.30;0.30;;;13.80;99.90;;;;;;5047664;28;20051;-75
2023/10/16 13:46:49;;;;;;;0.40;0.40;;;13.70;99.90;;;;;;5071337;28;20040;-76
2023/10/16 13:49:16;;;;;;;0.30;0.30;;;13.80;99.90;;;;;;5061030;28;20386;-73
2023/10/16 13:51:42;;;;;;;0.52;0.52;;;13.80;99.90;;;;;;5056956;28;20269;-73
2023/10/16 13:54:12;;;;;;;0.40;0.40;;;13.80;99.90;;;;;;5066172;28;20040;-74
2023/10/16 13:56:41;;;;;;;0.40;0.40;;;13.70;99.90;;;;;;5040237;28;20045;-73
2023/10/16 13:59:08;;;;;;;0.30;0.30;;;13.70;99.90;;;;;;5045575;28;20044;-73
2023/10/16 14:01:42;;;;;;;0.40;0.40;;;13.70;99.90;;;;;;5060555;28;20048;-75
2023/10/16 14:04:16;;;;;;;0.40;0.40;;;13.70;99.90;;;;;;5053072;28;20040;-75
2023/10/16 14:06:52;;;;;;;0.40;0.40;;;13.70;99.90;;;;;;5053699;28;20038;-75
2023/10/16 14:09:27;;;;;;;0.30;0.30;;;13.60;99.90;;;;;;5044733;28;20049;-73
2023/10/16 14:11:54;;;;;;;0.40;0.40;;;13.70;99.90;;;;;;5061641;28;20036;-74
2023/10/16 14:14:21;;;;;;;0.40;0.40;;;13.70;99.90;;;;;;5061530;28;20047;-76
2023/10/16 14:17:02;;;;;;;0.38;0.38;;;13.70;99.90;;;;;;5057802;28;20557;-77
2023/10/16 14:19:32;;;;;;;0.40;0.40;;;13.70;99.90;;;;;;5051437;28;20036;-76
2023/10/16 14:21:58;;;;;;;0.40;0.40;;;13.60;99.90;;;;;;5051911;28;20039;-76
2023/10/16 14:24:25;;;;;;;0.30;0.30;;;13.60;99.90;;;;;;5067066;28;20079;-76
2023/10/16 14:26:55;;;;;;;0.30;0.30;;;13.60;99.90;;;;;;5065612;28;20040;-76
2023/10/16 14:29:21;;;;;;;0.30;0.30;;;13.50;99.90;;;;;;5068639;28;20314;-76
2023/10/16 14:31:50;;;;;;;0.40;0.40;;;13.50;99.90;;;;;;5054067;28;20047;-76
2023/10/16 14:34:22;;;;;;;0.85;0.85;;;13.60;99.90;;;;;;5060418;28;20048;-75
2023/10/16 14:36:49;;;;;;;0.32;0.32;;;13.50;99.90;;;;;;5044735;28;20490;-76
2023/10/16 14:39:16;;;;;;;0.35;0.35;;;13.50;99.90;;;;;;5047670;28;20043;-77
2023/10/16 14:41:42;;;;;;;0.40;0.40;;;13.50;99.90;;;;;;5043635;28;20121;-74
2023/10/16 14:44:09;;;;;;;0.50;0.50;;;13.40;99.90;;;;;;5059455;28;20069;-75
2023/10/16 14:46:36;;;;;;;0.50;0.50;;;13.40;99.90;;;;;;5049614;28;20519;-75
2023/10/16 14:49:04;;;;;;;0.40;0.40;;;13.40;99.90;;;;;;5069206;28;20039;-74
2023/10/16 14:51:30;;;;;;;0.47;0.47;;;13.30;99.90;;;;;;5055322;28;20031;-74
2023/10/16 14:53:56;;;;;;;0.40;0.40;;;13.30;99.90;;;;;;5059382;28;20165;-74
2023/10/16 14:56:23;;;;;;;0.40;0.40;;;13.30;99.90;;;;;;5063635;28;20052;-75
2023/10/16 14:58:52;;;;;;;0.35;0.35;;;13.20;99.90;;;;;;5064310;28;20031;-74
2023/10/16 15:01:19;;;;;;;0.35;0.35;;;13.20;99.90;;;;;;5058474;28;20051;-74
2023/10/16 15:03:51;;;;;;;0.40;0.40;;;13.20;99.90;;;;;;5051443;28;20070;-74
2023/10/16 15:06:18;;;;;;;0.30;0.30;;;13.10;99.90;;;;;;5048821;28;20306;-73
2023/10/16 15:08:45;;;;;;;0.40;0.40;;;13.10;99.90;;;;;;5062990;28;20064;-74
2023/10/16 15:11:12;;;;;;;0.45;0.45;;;13.00;99.90;;;;;;5065985;28;20040;-74